TimeCDT,TemperatureF,Dew PointF,Humidity,Sea Level PressureIn,VisibilityMPH,Wind Direction,Wind SpeedMPH,Gust SpeedMPH,PrecipitationIn,Events,Conditions,WindDirDegrees,DateUTC
12:53 AM,70.0,60.1,71,29.92,10.0,South,3.5,-,N/A,,Partly Cloudy,180,2013-07-05 05:53:00
1:53 AM,70.0,57.9,65,29.92,10.0,South,4.6,-,N/A,,Scattered Clouds,180,2013-07-05 06:53:00
2:53 AM,72.0,57.0,59,29.92,10.0,SSW,8.1,-,N/A,,Mostly Cloudy,200,2013-07-05 07:53:00
3:53 AM,71.1,57.0,61,29.92,10.0,Variable,4.6,-,N/A,,Mostly Cloudy,0,2013-07-05 08:53:00
4:53 AM,70.0,57.0,63,29.93,10.0,SSW,5.8,-,N/A,,Mostly Cloudy,200,2013-07-05 09:53:00
5:53 AM,69.1,57.0,65,29.94,10.0,Calm,Calm,-,N/A,,Clear,0,2013-07-05 10:53:00
6:53 AM,70.0,57.0,63,29.93,10.0,Variable,5.8,-,N/A,,Clear,0,2013-07-05 11:53:00
7:53 AM,72.0,57.0,59,29.94,10.0,South,10.4,-,N/A,,Clear,190,2013-07-05 12:53:00
8:53 AM,75.9,57.9,54,29.93,10.0,South,8.1,-,N/A,,Clear,190,2013-07-05 13:53:00
9:53 AM,78.1,57.9,50,29.93,10.0,South,11.5,19.6,N/A,,Clear,190,2013-07-05 14:53:00
10:53 AM,81.0,57.9,45,29.92,10.0,South,13.8,19.6,N/A,,Clear,180,2013-07-05 15:53:00
11:53 AM,82.9,57.0,41,29.91,10.0,South,12.7,21.9,N/A,,Clear,180,2013-07-05 16:53:00
12:53 PM,84.0,55.9,38,29.88,10.0,SSW,11.5,26.5,N/A,,Clear,200,2013-07-05 17:53:00
1:53 PM,84.9,57.0,38,29.88,10.0,SSW,9.2,24.2,N/A,,Scattered Clouds,200,2013-07-05 18:53:00
2:53 PM,86.0,57.9,38,29.87,10.0,South,16.1,20.7,N/A,,Clear,170,2013-07-05 19:53:00
3:53 PM,86.0,57.0,37,29.86,10.0,South,11.5,26.5,N/A,,Clear,190,2013-07-05 20:53:00
4:53 PM,84.0,57.9,41,29.86,10.0,SSW,11.5,20.7,N/A,,Clear,200,2013-07-05 21:53:00
5:53 PM,82.0,60.1,47,29.85,10.0,South,10.4,-,N/A,,Overcast,180,2013-07-05 22:53:00
6:53 PM,82.0,60.1,47,29.84,10.0,Variable,6.9,-,N/A,,Scattered Clouds,0,2013-07-05 23:53:00
7:53 PM,80.1,59.0,48,29.85,10.0,South,9.2,17.3,N/A,,Clear,180,2013-07-06 00:53:00
8:53 PM,79.0,57.9,48,29.85,10.0,Variable,5.8,17.3,N/A,,Mostly Cloudy,0,2013-07-06 01:53:00
9:53 PM,78.1,57.0,48,29.85,10.0,South,6.9,-,N/A,,Clear,180,2013-07-06 02:53:00
10:53 PM,77.0,57.9,52,29.86,10.0,South,8.1,-,N/A,,Clear,180,2013-07-06 03:53:00
11:53 PM,75.9,57.9,54,29.87,10.0,South,5.8,-,N/A,,Clear,190,2013-07-06 04:53:00